Time;durP1;ratioP1;P1;durP2;ratioP2;P2;SDS_P1;SDS_P2;PMS_P1;PMS_P2;Temp;Humidity;BMP_temperature;BMP_pressure;BME280_temperature;BME280_humidity;BME280_pressure;Samples;Min_cycle;Max_cycle;Signal;HPM_P1;HPM_P2
2023/04/02 00:02:14;;;;;;;;;;;;;;;;;;137043;1272;22567;-83
2023/04/02 00:05:17;;;;;;;;;;;;;;;;;;137134;1272;24375;-84
2023/04/02 00:08:18;;;;;;;;;;;;;;;;;;137599;1272;22515;-82
2023/04/02 00:11:19;;;;;;;;;;;;;;;;;;136889;1272;22611;-80
2023/04/02 00:14:20;;;;;;;;;;;;;;;;;;136986;1272;22530;-82
2023/04/02 00:17:22;;;;;;;;;;;;;;;;;;137752;1272;22392;-82
2023/04/02 00:20:23;;;;;;;;;;;;;;;;;;136949;1272;22515;-83
2023/04/02 00:23:24;;;;;;;;;;;;;;;;;;136954;1272;22555;-83
2023/04/02 00:26:25;;;;;;;;;;;;;;;;;;137442;1272;22522;-83
2023/04/02 00:29:26;;;;;;;;;;;;;;;;;;137238;1272;22950;-81
2023/04/02 00:32:27;;;;;;;;;;;;;;;;;;137069;1272;22518;-83
2023/04/02 00:35:28;;;;;;;;;;;;;;;;;;137217;1272;22524;-85
2023/04/02 00:38:29;;;;;;;;;;;;;;;;;;137450;1272;22498;-82
2023/04/02 00:41:30;;;;;;;;;;;;;;;;;;137010;1272;22476;-82
2023/04/02 00:44:32;;;;;;;;;;;;;;;;;;137066;1272;22515;-82
2023/04/02 00:47:33;;;;;;;;;;;;;;;;;;137643;1272;22492;-83
2023/04/02 00:50:36;;;;;;;;;;;;;;;;;;137007;1272;22499;-83
2023/04/02 00:53:37;;;;;;;;;;;;;;;;;;137008;1272;22968;-81
2023/04/02 00:56:39;;;;;;;;;;;;;;;;;;137595;1272;22546;-82
2023/04/02 00:59:40;;;;;;;;;;;;;;;;;;137090;1272;22521;-83
2023/04/02 01:02:41;;;;;;;;;;;;;;;;;;137002;1272;22481;-83
2023/04/02 01:05:44;;;;;;;;;;;;;;;;;;137363;1272;24451;-83
2023/04/02 01:08:45;;;;;;;;;;;;;;;;;;137261;1272;22511;-82
2023/04/02 01:11:46;;;;;;;;;;;;;;;;;;136987;1272;22572;-81
2023/04/02 01:14:47;;;;;;;;;;;;;;;;;;137135;1272;22529;-82
2023/04/02 01:17:48;;;;;;;;;;;;;;;;;;137610;1272;22544;-81
2023/04/02 01:20:49;;;;;;;;;;;;;;;;;;137028;1272;22556;-82
2023/04/02 01:23:51;;;;;;;;;;;;;;;;;;137057;1272;22527;-82
2023/04/02 01:26:52;;;;;;;;;;;;;;;;;;137658;1272;22502;-82
2023/04/02 01:29:54;;;;;;;;;;;;;;;;;;137044;1272;22498;-83
2023/04/02 01:32:55;;;;;;;;;;;;;;;;;;137044;1272;22528;-83
2023/04/02 01:35:56;;;;;;;;;;;;;;;;;;137460;1272;22519;-82
2023/04/02 01:38:57;;;;;;;;;;;;;;;;;;137240;1272;22545;-82
2023/04/02 01:41:58;;;;;;;;;;;;;;;;;;137022;1272;22531;-83
2023/04/02 01:44:59;;;;;;;;;;;;;;;;;;137201;1272;22541;-83
2023/04/02 01:48:00;;;;;;;;;;;;;;;;;;137533;1272;22493;-82
2023/04/02 01:51:02;;;;;;;;;;;;;;;;;;136989;1272;22509;-82
2023/04/02 01:54:03;;;;;;;;;;;;;;;;;;137062;1272;23010;-83
2023/04/02 01:57:04;;;;;;;;;;;;;;;;;;137724;1272;22563;-83
2023/04/02 02:00:12;;;;;;;;;;;;;;;;;;137046;1272;22533;-82
2023/04/02 02:03:13;;;;;;;;;;;;;;;;;;137044;1272;22902;-83
2023/04/02 02:06:14;;;;;;;;;;;;;;;;;;137554;1272;23307;-84
2023/04/02 02:09:16;;;;;;;;;;;;;;;;;;137324;1272;23329;-81
2023/04/02 02:12:17;;;;;;;;;;;;;;;;;;136912;1272;22534;-82
2023/04/02 02:15:18;;;;;;;;;;;;;;;;;;137206;1272;22498;-85
2023/04/02 02:18:19;;;;;;;;;;;;;;;;;;137328;1272;22512;-81
2023/04/02 02:21:20;;;;;;;;;;;;;;;;;;136994;1272;22541;-81
2023/04/02 02:24:22;;;;;;;;;;;;;;;;;;137009;1272;24928;-83
2023/04/02 02:27:23;;;;;;;;;;;;;;;;;;137562;1272;23009;-81
2023/04/02 02:30:24;;;;;;;;;;;;;;;;;;137045;1272;22521;-81
2023/04/02 02:33:25;;;;;;;;;;;;;;;;;;136839;1272;24226;-81
2023/04/02 02:36:26;;;;;;;;;;;;;;;;;;137755;1268;22538;-82
2023/04/02 02:39:28;;;;;;;;;;;;;;;;;;137111;1272;22498;-82
2023/04/02 02:42:32;;;;;;;;;;;;;;;;;;137039;1272;22618;-80
2023/04/02 02:45:33;;;;;;;;;;;;;;;;;;137469;1272;25210;-83
2023/04/02 02:48:34;;;;;;;;;;;;;;;;;;137301;1272;22552;-80
2023/04/02 02:51:35;;;;;;;;;;;;;;;;;;137057;1272;22495;-80
2023/04/02 02:54:36;;;;;;;;;;;;;;;;;;137079;1272;22508;-81
2023/04/02 02:57:37;;;;;;;;;;;;;;;;;;137540;1272;22505;-80
2023/04/02 03:00:41;;;;;;;;;;;;;;;;;;136951;1272;22517;-81
2023/04/02 03:03:43;;;;;;;;;;;;;;;;;;137034;1272;22531;-83
2023/04/02 03:06:44;;;;;;;;;;;;;;;;;;137659;1272;22854;-81
2023/04/02 03:09:45;;;;;;;;;;;;;;;;;;136891;1272;22526;-81
2023/04/02 03:12:47;;;;;;;;;;;;;;;;;;136966;1272;22507;-80
2023/04/02 03:15:48;;;;;;;;;;;;;;;;;;137586;1272;23241;-81
2023/04/02 03:18:49;;;;;;;;;;;;;;;;;;137128;1272;23003;-81
2023/04/02 03:21:50;;;;;;;;;;;;;;;;;;137041;1272;22879;-81
2023/04/02 03:24:52;;;;;;;;;;;;;;;;;;137403;1272;22514;-81
2023/04/02 03:27:53;;;;;;;;;;;;;;;;;;137309;1272;22570;-81
2023/04/02 03:30:54;;;;;;;;;;;;;;;;;;137019;1272;22493;-82
2023/04/02 03:33:55;;;;;;;;;;;;;;;;;;137116;1263;22526;-81
2023/04/02 03:36:56;;;;;;;;;;;;;;;;;;137650;1272;22972;-81
2023/04/02 03:39:57;;;;;;;;;;;;;;;;;;137066;1272;22868;-81
2023/04/02 03:42:59;;;;;;;;;;;;;;;;;;137026;1272;22544;-82
2023/04/02 03:46:00;;;;;;;;;;;;;;;;;;137639;1272;25194;-83
2023/04/02 03:49:01;;;;;;;;;;;;;;;;;;136970;1272;22486;-82
2023/04/02 03:52:02;;;;;;;;;;;;;;;;;;136853;1272;22554;-82
2023/04/02 03:55:04;;;;;;;;;;;;;;;;;;137345;1272;25999;-83
2023/04/02 03:58:05;;;;;;;;;;;;;;;;;;137255;1272;22513;-82
2023/04/02 04:01:06;;;;;;;;;;;;;;;;;;137021;1272;22499;-81
2023/04/02 04:04:07;;;;;;;;;;;;;;;;;;137191;1272;22527;-82
2023/04/02 04:07:08;;;;;;;;;;;;;;;;;;137638;1272;22502;-81
2023/04/02 04:10:09;;;;;;;;;;;;;;;;;;136987;1272;22855;-83
2023/04/02 04:13:10;;;;;;;;;;;;;;;;;;137055;1272;22541;-82
2023/04/02 04:16:12;;;;;;;;;;;;;;;;;;137618;1272;22543;-83
2023/04/02 04:19:13;;;;;;;;;;;;;;;;;;137052;1272;23059;-83
2023/04/02 04:22:14;;;;;;;;;;;;;;;;;;136986;1272;22538;-82
2023/04/02 04:25:16;;;;;;;;;;;;;;;;;;137636;1272;22531;-83
2023/04/02 04:28:17;;;;;;;;;;;;;;;;;;137142;1272;22545;-82
2023/04/02 04:31:19;;;;;;;;;;;;;;;;;;137048;1272;22509;-82
2023/04/02 04:34:20;;;;;;;;;;;;;;;;;;137430;1272;22520;-84
2023/04/02 04:37:24;;;;;;;;;;;;;;;;;;137398;1272;22982;-81
2023/04/02 04:40:25;;;;;;;;;;;;;;;;;;137024;1272;22529;-82
2023/04/02 04:43:26;;;;;;;;;;;;;;;;;;137066;1272;22513;-83
2023/04/02 04:46:27;;;;;;;;;;;;;;;;;;137581;1272;22579;-83
2023/04/02 04:49:28;;;;;;;;;;;;;;;;;;137017;1272;22531;-83
2023/04/02 04:52:29;;;;;;;;;;;;;;;;;;137003;1272;22564;-83
2023/04/02 04:55:32;;;;;;;;;;;;;;;;;;137612;1272;22488;-82
2023/04/02 04:58:33;;;;;;;;;;;;;;;;;;137067;1272;22496;-83
2023/04/02 05:01:35;;;;;;;;;;;;;;;;;;136943;1272;22569;-84
2023/04/02 05:04:36;;;;;;;;;;;;;;;;;;137454;1272;22926;-83
2023/04/02 05:07:37;;;;;;;;;;;;;;;;;;137363;1272;22549;-81
2023/04/02 05:10:38;;;;;;;;;;;;;;;;;;136819;1272;272168;-83
2023/04/02 05:13:40;;;;;;;;;;;;;;;;;;137287;1272;22534;-84
2023/04/02 05:16:41;;;;;;;;;;;;;;;;;;137573;1272;22535;-83
2023/04/02 05:19:42;;;;;;;;;;;;;;;;;;136969;1272;22436;-81
2023/04/02 05:22:43;;;;;;;;;;;;;;;;;;137084;1272;22527;-82
2023/04/02 05:25:44;;;;;;;;;;;;;;;;;;137689;1272;22533;-80
2023/04/02 05:28:45;;;;;;;;;;;;;;;;;;136973;1272;22920;-81
2023/04/02 05:31:47;;;;;;;;;;;;;;;;;;136938;1272;22683;-81
2023/04/02 05:34:48;;;;;;;;;;;;;;;;;;137137;1272;22529;-82
2023/04/02 05:37:50;;;;;;;;;;;;;;;;;;136922;1272;22602;-84
2023/04/02 05:40:51;;;;;;;;;;;;;;;;;;137047;1272;22506;-82
2023/04/02 05:43:52;;;;;;;;;;;;;;;;;;137399;1272;22510;-83
2023/04/02 05:46:53;;;;;;;;;;;;;;;;;;137400;1272;23033;-84
2023/04/02 05:49:54;;;;;;;;;;;;;;;;;;137009;1272;22557;-83
2023/04/02 05:52:56;;;;;;;;;;;;;;;;;;137111;1272;22514;-86
2023/04/02 05:55:57;;;;;;;;;;;;;;;;;;137454;1272;22539;-82
2023/04/02 05:58:58;;;;;;;;;;;;;;;;;;137055;1272;22484;-82
2023/04/02 06:02:01;;;;;;;;;;;;;;;;;;136970;1272;23013;-82
2023/04/02 06:05:03;;;;;;;;;;;;;;;;;;137639;1272;22499;-82
2023/04/02 06:08:04;;;;;;;;;;;;;;;;;;137076;1272;22494;-83
2023/04/02 06:11:05;;;;;;;;;;;;;;;;;;137006;1272;22501;-82
2023/04/02 06:14:06;;;;;;;;;;;;;;;;;;137327;1272;22565;-84
2023/04/02 06:17:07;;;;;;;;;;;;;;;;;;137200;1272;22504;-83
2023/04/02 06:20:08;;;;;;;;;;;;;;;;;;136887;1272;22541;-83
2023/04/02 06:23:10;;;;;;;;;;;;;;;;;;137335;1267;22533;-83
2023/04/02 06:26:11;;;;;;;;;;;;;;;;;;137423;1272;22547;-84
2023/04/02 06:29:12;;;;;;;;;;;;;;;;;;137120;1272;22502;-84
2023/04/02 06:32:13;;;;;;;;;;;;;;;;;;137110;1272;22554;-86
2023/04/02 06:35:14;;;;;;;;;;;;;;;;;;137657;1272;22559;-84
2023/04/02 06:38:15;;;;;;;;;;;;;;;;;;137057;1270;22522;-83
2023/04/02 06:41:16;;;;;;;;;;;;;;;;;;137078;1272;22545;-84
2023/04/02 06:44:17;;;;;;;;;;;;;;;;;;137786;1272;22536;-85
2023/04/02 06:47:18;;;;;;;;;;;;;;;;;;136947;1272;22483;-84
2023/04/02 06:50:21;;;;;;;;;;;;;;;;;;137000;1272;22508;-84
2023/04/02 06:53:22;;;;;;;;;;;;;;;;;;137557;1272;22524;-84
2023/04/02 06:56:23;;;;;;;;;;;;;;;;;;137307;1272;22518;-84
2023/04/02 06:59:24;;;;;;;;;;;;;;;;;;137056;1272;22486;-84
2023/04/02 07:02:25;;;;;;;;;;;;;;;;;;137215;1272;24960;-85
2023/04/02 07:05:26;;;;;;;;;;;;;;;;;;137646;1272;22472;-85
2023/04/02 07:08:27;;;;;;;;;;;;;;;;;;136935;1272;22521;-85
2023/04/02 07:11:28;;;;;;;;;;;;;;;;;;136968;1272;22531;-85
2023/04/02 07:14:30;;;;;;;;;;;;;;;;;;137571;1272;22517;-83
2023/04/02 07:17:31;;;;;;;;;;;;;;;;;;137096;1272;22513;-84
2023/04/02 07:20:32;;;;;;;;;;;;;;;;;;136979;1272;23245;-83
2023/04/02 07:23:33;;;;;;;;;;;;;;;;;;137748;1272;22488;-85
2023/04/02 07:26:34;;;;;;;;;;;;;;;;;;137015;1269;22500;-85
2023/04/02 07:29:41;;;;;;;;;;;;;;;;;;137164;1272;22820;-85
2023/04/02 07:32:42;;;;;;;;;;;;;;;;;;137341;1272;22506;-85
2023/04/02 07:35:43;;;;;;;;;;;;;;;;;;137260;1272;22511;-85
2023/04/02 07:38:44;;;;;;;;;;;;;;;;;;137031;1272;22947;-84
2023/04/02 07:41:45;;;;;;;;;;;;;;;;;;137204;1272;23188;-85
2023/04/02 07:44:46;;;;;;;;;;;;;;;;;;137516;1272;22534;-85
2023/04/02 07:47:47;;;;;;;;;;;;;;;;;;137026;1272;22525;-84
2023/04/02 07:50:48;;;;;;;;;;;;;;;;;;137138;1272;24193;-85
2023/04/02 07:53:53;;;;;;;;;;;;;;;;;;137670;1272;22886;-85
2023/04/02 07:56:54;;;;;;;;;;;;;;;;;;137031;1272;22500;-84
2023/04/02 07:59:55;;;;;;;;;;;;;;;;;;137029;1266;22502;-84
2023/04/02 08:02:57;;;;;;;;;;;;;;;;;;137551;1272;22556;-85
2023/04/02 08:05:58;;;;;;;;;;;;;;;;;;137047;1272;22499;-85
2023/04/02 08:08:59;;;;;;;;;;;;;;;;;;136962;1272;22998;-85
2023/04/02 08:12:00;;;;;;;;;;;;;;;;;;137368;1272;22589;-87
2023/04/02 08:15:01;;;;;;;;;;;;;;;;;;137124;1272;22542;-84
2023/04/02 08:18:03;;;;;;;;;;;;;;;;;;136974;1272;22522;-82
2023/04/02 08:21:04;;;;;;;;;;;;;;;;;;137411;1272;22538;-84
2023/04/02 08:24:05;;;;;;;;;;;;;;;;;;137242;1272;23016;-86
2023/04/02 08:27:06;;;;;;;;;;;;;;;;;;136981;1272;22507;-84
2023/04/02 08:30:07;;;;;;;;;;;;;;;;;;137269;1272;22514;-85
2023/04/02 08:33:10;;;;;;;;;;;;;;;;;;137576;1272;22489;-86
2023/04/02 08:36:11;;;;;;;;;;;;;;;;;;137016;1272;22849;-85
2023/04/02 08:39:12;;;;;;;;;;;;;;;;;;137034;1266;22524;-85
2023/04/02 08:42:13;;;;;;;;;;;;;;;;;;137428;1272;22940;-84
2023/04/02 08:45:15;;;;;;;;;;;;;;;;;;137094;1272;22518;-84
2023/04/02 08:48:16;;;;;;;;;;;;;;;;;;137149;1272;22586;-85
2023/04/02 08:51:17;;;;;;;;;;;;;;;;;;137575;1272;22992;-83
2023/04/02 08:54:18;;;;;;;;;;;;;;;;;;136997;1272;22967;-87
2023/04/02 08:57:19;;;;;;;;;;;;;;;;;;136827;1272;22540;-86
2023/04/02 09:00:20;;;;;;;;;;;;;;;;;;137670;1272;22534;-86
2023/04/02 09:03:22;;;;;;;;;;;;;;;;;;137038;1272;22537;-85
2023/04/02 09:06:23;;;;;;;;;;;;;;;;;;137126;1272;22499;-84
2023/04/02 09:09:24;;;;;;;;;;;;;;;;;;137538;1272;22959;-86
2023/04/02 09:12:25;;;;;;;;;;;;;;;;;;136234;1272;22540;-85
2023/04/02 09:15:28;;;;;;;;;;;;;;;;;;136381;1272;22515;-86
2023/04/02 09:18:29;;;;;;;;;;;;;;;;;;137718;1272;22940;-85
2023/04/02 09:21:30;;;;;;;;;;;;;;;;;;137563;1272;22501;-86
2023/04/02 09:24:31;;;;;;;;;;;;;;;;;;137065;1272;22534;-85
2023/04/02 09:27:32;;;;;;;;;;;;;;;;;;137258;1269;22513;-86
2023/04/02 09:30:33;;;;;;;;;;;;;;;;;;137553;1272;22502;-84
2023/04/02 09:33:34;;;;;;;;;;;;;;;;;;136932;1272;22547;-85
2023/04/02 09:36:36;;;;;;;;;;;;;;;;;;137099;1272;25386;-86
2023/04/02 09:39:36;;;;;;;;;;;;;;;;;;137669;1272;23103;-86
2023/04/02 09:42:38;;;;;;;;;;;;;;;;;;137038;1269;22585;-86
2023/04/02 09:45:39;;;;;;;;;;;;;;;;;;136972;1272;22896;-87
2023/04/02 09:48:40;;;;;;;;;;;;;;;;;;137639;1272;22527;-88
2023/04/02 09:51:41;;;;;;;;;;;;;;;;;;137072;1272;22591;-85
2023/04/02 09:54:42;;;;;;;;;;;;;;;;;;137056;1272;22491;-86
2023/04/02 09:57:43;;;;;;;;;;;;;;;;;;137376;1272;22515;-86
2023/04/02 10:00:44;;;;;;;;;;;;;;;;;;137339;1272;22926;-87
2023/04/02 10:03:45;;;;;;;;;;;;;;;;;;137034;1272;22960;-84
2023/04/02 10:06:46;;;;;;;;;;;;;;;;;;137105;1272;22543;-86
2023/04/02 10:09:48;;;;;;;;;;;;;;;;;;137326;1272;22515;-86
2023/04/02 10:12:55;;;;;;;;;;;;;;;;;;137058;1272;22625;-86
2023/04/02 10:15:57;;;;;;;;;;;;;;;;;;137013;1272;22511;-84
2023/04/02 10:18:58;;;;;;;;;;;;;;;;;;137634;1272;22506;-86
2023/04/02 10:21:59;;;;;;;;;;;;;;;;;;137073;1272;22517;-84
2023/04/02 10:25:00;;;;;;;;;;;;;;;;;;137202;1272;23064;-85
2023/04/02 10:28:02;;;;;;;;;;;;;;;;;;137777;1272;22498;-84
2023/04/02 10:31:03;;;;;;;;;;;;;;;;;;137108;1272;22934;-86
2023/04/02 10:34:05;;;;;;;;;;;;;;;;;;137209;1272;22460;-83
2023/04/02 10:37:07;;;;;;;;;;;;;;;;;;137587;1268;22518;-87
2023/04/02 10:40:09;;;;;;;;;;;;;;;;;;137326;1272;22496;-85
2023/04/02 10:43:11;;;;;;;;;;;;;;;;;;137033;1272;22498;-85
2023/04/02 10:46:15;;;;;;;;;;;;;;;;;;137233;1272;22521;-86
2023/04/02 10:49:16;;;;;;;;;;;;;;;;;;137486;1272;22513;-85
2023/04/02 10:52:17;;;;;;;;;;;;;;;;;;136994;1272;22611;-85
2023/04/02 10:55:18;;;;;;;;;;;;;;;;;;137167;1272;22464;-84
2023/04/02 10:58:19;;;;;;;;;;;;;;;;;;137758;1272;22521;-85
2023/04/02 11:01:21;;;;;;;;;;;;;;;;;;137118;1272;22868;-86
2023/04/02 11:04:22;;;;;;;;;;;;;;;;;;136980;1256;22875;-86
2023/04/02 11:07:23;;;;;;;;;;;;;;;;;;137578;1272;22512;-85
2023/04/02 11:10:26;;;;;;;;;;;;;;;;;;137183;1272;22510;-86
2023/04/02 11:13:27;;;;;;;;;;;;;;;;;;137077;1272;22932;-86
2023/04/02 11:16:29;;;;;;;;;;;;;;;;;;137299;1272;22622;-87
2023/04/02 11:19:30;;;;;;;;;;;;;;;;;;137330;1272;22506;-87
2023/04/02 11:22:31;;;;;;;;;;;;;;;;;;137062;1272;22499;-86
2023/04/02 11:25:34;;;;;;;;;;;;;;;;;;137199;1272;22522;-85
2023/04/02 11:28:38;;;;;;;;;;;;;;;;;;137470;1272;22534;-85
2023/04/02 11:31:39;;;;;;;;;;;;;;;;;;137091;1272;22522;-86
2023/04/02 11:34:40;;;;;;;;;;;;;;;;;;137134;1272;22559;-83
2023/04/02 11:37:43;;;;;;;;;;;;;;;;;;137712;1272;22583;-84
2023/04/02 11:40:50;;;;;;;;;;;;;;;;;;137059;1272;22994;-85
2023/04/02 11:43:51;;;;;;;;;;;;;;;;;;137032;1272;22540;-85
2023/04/02 11:46:53;;;;;;;;;;;;;;;;;;137579;1272;25293;-86
2023/04/02 11:49:57;;;;;;;;;;;;;;;;;;137268;1272;22579;-85
2023/04/02 11:52:58;;;;;;;;;;;;;;;;;;137101;1272;22500;-85
2023/04/02 11:56:00;;;;;;;;;;;;;;;;;;137288;1272;22502;-85
2023/04/02 11:59:03;;;;;;;;;;;;;;;;;;137534;1272;23001;-85
2023/04/02 12:02:05;;;;;;;;;;;;;;;;;;137142;1272;22535;-85
2023/04/02 12:05:06;;;;;;;;;;;;;;;;;;137067;1272;23275;-85
2023/04/02 12:08:07;;;;;;;;;;;;;;;;;;137695;1272;22555;-85
2023/04/02 12:11:08;;;;;;;;;;;;;;;;;;137064;1272;22962;-85
2023/04/02 12:14:09;;;;;;;;;;;;;;;;;;137084;1272;22651;-85
2023/04/02 12:17:11;;;;;;;;;;;;;;;;;;137732;1272;22505;-84
2023/04/02 12:20:12;;;;;;;;;;;;;;;;;;137066;1272;22503;-84
2023/04/02 12:23:13;;;;;;;;;;;;;;;;;;136986;1272;22534;-84
2023/04/02 12:26:17;;;;;;;;;;;;;;;;;;137479;1272;22522;-85
2023/04/02 12:29:18;;;;;;;;;;;;;;;;;;137305;1267;22501;-84
2023/04/02 12:32:20;;;;;;;;;;;;;;;;;;136960;1272;22509;-83
2023/04/02 12:35:21;;;;;;;;;;;;;;;;;;137293;1272;22515;-84
2023/04/02 12:38:22;;;;;;;;;;;;;;;;;;137577;1272;22907;-83
2023/04/02 12:41:23;;;;;;;;;;;;;;;;;;137099;1272;22524;-82
2023/04/02 12:44:24;;;;;;;;;;;;;;;;;;137069;1272;22541;-82
2023/04/02 12:47:25;;;;;;;;;;;;;;;;;;137656;1272;22540;-82
2023/04/02 12:50:26;;;;;;;;;;;;;;;;;;136991;1272;25230;-82
2023/04/02 12:53:27;;;;;;;;;;;;;;;;;;136960;1272;22494;-84
2023/04/02 12:56:28;;;;;;;;;;;;;;;;;;137634;1272;22498;-82
2023/04/02 12:59:29;;;;;;;;;;;;;;;;;;137144;1272;22536;-82
2023/04/02 13:02:30;;;;;;;;;;;;;;;;;;137090;1272;22520;-82
2023/04/02 13:05:32;;;;;;;;;;;;;;;;;;137417;1272;22519;-83
2023/04/02 13:08:33;;;;;;;;;;;;;;;;;;137509;1272;22488;-83
2023/04/02 13:11:34;;;;;;;;;;;;;;;;;;137100;1272;22491;-81
2023/04/02 13:14:36;;;;;;;;;;;;;;;;;;137182;1272;22513;-83
2023/04/02 13:17:37;;;;;;;;;;;;;;;;;;137677;1272;22521;-81
2023/04/02 13:20:38;;;;;;;;;;;;;;;;;;137102;1272;22877;-82
2023/04/02 13:23:39;;;;;;;;;;;;;;;;;;137034;1272;22562;-82
2023/04/02 13:26:42;;;;;;;;;;;;;;;;;;137695;1272;22498;-82
2023/04/02 13:29:43;;;;;;;;;;;;;;;;;;137121;1272;22987;-84
2023/04/02 13:32:44;;;;;;;;;;;;;;;;;;137006;1272;22565;-82
2023/04/02 13:35:45;;;;;;;;;;;;;;;;;;137492;1272;25329;-84
2023/04/02 13:38:46;;;;;;;;;;;;;;;;;;137342;1272;22496;-82
2023/04/02 13:41:47;;;;;;;;;;;;;;;;;;136949;1272;22520;-81
2023/04/02 13:44:48;;;;;;;;;;;;;;;;;;137275;1272;22518;-84
2023/04/02 13:47:49;;;;;;;;;;;;;;;;;;137429;1272;22494;-82
2023/04/02 13:50:51;;;;;;;;;;;;;;;;;;136974;1272;22517;-81
2023/04/02 13:53:52;;;;;;;;;;;;;;;;;;137084;1272;22510;-84
2023/04/02 13:56:53;;;;;;;;;;;;;;;;;;137621;1272;22491;-81
2023/04/02 13:59:54;;;;;;;;;;;;;;;;;;137023;1272;22598;-81
2023/04/02 14:02:55;;;;;;;;;;;;;;;;;;137096;1272;22996;-82
2023/04/02 14:05:56;;;;;;;;;;;;;;;;;;137772;1269;22304;-83
2023/04/02 14:08:58;;;;;;;;;;;;;;;;;;137085;1272;22495;-82
2023/04/02 14:11:59;;;;;;;;;;;;;;;;;;137055;1272;22526;-82
2023/04/02 14:15:00;;;;;;;;;;;;;;;;;;137419;1272;22507;-83
2023/04/02 14:18:01;;;;;;;;;;;;;;;;;;137329;1272;22537;-81
2023/04/02 14:21:05;;;;;;;;;;;;;;;;;;137058;1272;22917;-82
2023/04/02 14:24:06;;;;;;;;;;;;;;;;;;137240;1272;25304;-83
2023/04/02 14:27:07;;;;;;;;;;;;;;;;;;137629;1272;22523;-81
2023/04/02 14:30:08;;;;;;;;;;;;;;;;;;136960;1272;22498;-82
2023/04/02 14:33:09;;;;;;;;;;;;;;;;;;137063;1272;22537;-82
2023/04/02 14:36:10;;;;;;;;;;;;;;;;;;137728;1272;22488;-82
2023/04/02 14:39:11;;;;;;;;;;;;;;;;;;137012;1272;22553;-83
2023/04/02 14:42:12;;;;;;;;;;;;;;;;;;137030;1272;22488;-82
2023/04/02 14:45:13;;;;;;;;;;;;;;;;;;137563;1272;22638;-82
2023/04/02 14:48:15;;;;;;;;;;;;;;;;;;137317;1272;22554;-83
2023/04/02 14:51:16;;;;;;;;;;;;;;;;;;137062;1272;22495;-82
2023/04/02 14:54:17;;;;;;;;;;;;;;;;;;137510;1272;22539;-83
2023/04/02 14:57:20;;;;;;;;;;;;;;;;;;137484;1272;22507;-83
2023/04/02 15:00:21;;;;;;;;;;;;;;;;;;137101;1272;22506;-83
2023/04/02 15:03:22;;;;;;;;;;;;;;;;;;137086;1272;22520;-84
2023/04/02 15:06:26;;;;;;;;;;;;;;;;;;137673;1272;22873;-82
2023/04/02 15:09:28;;;;;;;;;;;;;;;;;;136941;1272;22522;-82
2023/04/02 15:12:29;;;;;;;;;;;;;;;;;;137044;1272;22875;-83
2023/04/02 15:15:31;;;;;;;;;;;;;;;;;;137557;1272;22518;-83
2023/04/02 15:18:33;;;;;;;;;;;;;;;;;;137130;1272;22558;-82
2023/04/02 15:21:34;;;;;;;;;;;;;;;;;;137040;1272;22542;-82
2023/04/02 15:24:35;;;;;;;;;;;;;;;;;;137415;1272;22534;-83
2023/04/02 15:27:36;;;;;;;;;;;;;;;;;;137372;1269;22508;-83
2023/04/02 15:30:37;;;;;;;;;;;;;;;;;;137000;1272;22479;-84
2023/04/02 15:33:38;;;;;;;;;;;;;;;;;;137201;1272;25768;-85
2023/04/02 15:36:39;;;;;;;;;;;;;;;;;;137475;1272;22499;-84
2023/04/02 15:39:40;;;;;;;;;;;;;;;;;;136909;1272;22523;-85
2023/04/02 15:42:41;;;;;;;;;;;;;;;;;;137086;1272;22433;-84
2023/04/02 15:45:42;;;;;;;;;;;;;;;;;;137603;1272;22499;-85
2023/04/02 15:48:43;;;;;;;;;;;;;;;;;;136980;1272;22501;-85
2023/04/02 15:51:44;;;;;;;;;;;;;;;;;;136927;1272;22554;-85
2023/04/02 15:54:45;;;;;;;;;;;;;;;;;;137718;1272;22433;-86
2023/04/02 15:57:47;;;;;;;;;;;;;;;;;;137061;1272;23044;-86
2023/04/02 16:00:48;;;;;;;;;;;;;;;;;;137029;1272;22504;-86
2023/04/02 16:03:49;;;;;;;;;;;;;;;;;;137372;1272;22514;-86
2023/04/02 16:06:52;;;;;;;;;;;;;;;;;;137323;1272;22501;-87
2023/04/02 16:09:53;;;;;;;;;;;;;;;;;;137037;1272;23002;-85
2023/04/02 16:12:54;;;;;;;;;;;;;;;;;;137087;1272;23308;-87
2023/04/02 16:15:55;;;;;;;;;;;;;;;;;;137470;1272;23084;-86
2023/04/02 16:18:56;;;;;;;;;;;;;;;;;;137073;1272;22483;-87
2023/04/02 16:21:58;;;;;;;;;;;;;;;;;;137106;1272;22536;-85
2023/04/02 16:24:59;;;;;;;;;;;;;;;;;;137559;1272;22588;-85
2023/04/02 16:28:00;;;;;;;;;;;;;;;;;;136895;1272;22526;-84
2023/04/02 16:31:01;;;;;;;;;;;;;;;;;;136985;1272;22905;-85
2023/04/02 16:34:04;;;;;;;;;;;;;;;;;;137645;1272;25324;-85
2023/04/02 16:37:05;;;;;;;;;;;;;;;;;;137162;1272;22554;-85
2023/04/02 16:40:09;;;;;;;;;;;;;;;;;;137003;1272;22535;-87
2023/04/02 16:43:10;;;;;;;;;;;;;;;;;;137359;1272;22506;-86
2023/04/02 16:46:11;;;;;;;;;;;;;;;;;;137391;1272;22528;-86
2023/04/02 16:49:12;;;;;;;;;;;;;;;;;;137060;1272;23179;-87
2023/04/02 16:52:13;;;;;;;;;;;;;;;;;;137190;1272;22525;-86
2023/04/02 16:55:14;;;;;;;;;;;;;;;;;;137556;1272;22584;-86
2023/04/02 16:58:15;;;;;;;;;;;;;;;;;;136799;1272;22485;-84
2023/04/02 17:01:16;;;;;;;;;;;;;;;;;;137056;1272;22537;-85
2023/04/02 17:04:17;;;;;;;;;;;;;;;;;;137596;1272;22491;-87
2023/04/02 17:07:18;;;;;;;;;;;;;;;;;;137176;1272;23060;-86
2023/04/02 17:10:19;;;;;;;;;;;;;;;;;;137060;1272;186274;-86
2023/04/02 17:13:21;;;;;;;;;;;;;;;;;;137742;1272;22339;-86
2023/04/02 17:16:22;;;;;;;;;;;;;;;;;;137325;1272;22883;-86
2023/04/02 17:19:23;;;;;;;;;;;;;;;;;;137136;1272;23046;-87
2023/04/02 17:22:24;;;;;;;;;;;;;;;;;;137213;1272;22515;-88
2023/04/02 17:25:25;;;;;;;;;;;;;;;;;;137352;1272;22555;-87
2023/04/02 17:28:28;;;;;;;;;;;;;;;;;;137014;1272;22503;-86
2023/04/02 17:31:32;;;;;;;;;;;;;;;;;;137103;1272;23486;-90
2023/04/02 17:34:33;;;;;;;;;;;;;;;;;;137603;1272;22554;-86
2023/04/02 17:37:35;;;;;;;;;;;;;;;;;;136976;1272;22491;-87
2023/04/02 17:40:36;;;;;;;;;;;;;;;;;;136898;1272;25024;-85
2023/04/02 17:43:37;;;;;;;;;;;;;;;;;;137676;1272;22516;-85
2023/04/02 17:46:38;;;;;;;;;;;;;;;;;;136872;1272;22520;-86
2023/04/02 17:49:39;;;;;;;;;;;;;;;;;;136993;1272;22491;-85
2023/04/02 17:52:40;;;;;;;;;;;;;;;;;;137565;1272;22502;-85
2023/04/02 17:55:41;;;;;;;;;;;;;;;;;;137054;1272;22602;-86
2023/04/02 17:58:42;;;;;;;;;;;;;;;;;;136917;1272;22533;-86
2023/04/02 18:01:45;;;;;;;;;;;;;;;;;;137401;1272;22512;-87
2023/04/02 18:04:46;;;;;;;;;;;;;;;;;;137081;1272;22932;-86
2023/04/02 18:07:47;;;;;;;;;;;;;;;;;;136826;1272;22525;-86
2023/04/02 18:10:49;;;;;;;;;;;;;;;;;;137107;1272;22512;-85
2023/04/02 18:13:50;;;;;;;;;;;;;;;;;;137316;1272;22545;-86
2023/04/02 18:16:51;;;;;;;;;;;;;;;;;;136953;1272;22525;-85
2023/04/02 18:19:52;;;;;;;;;;;;;;;;;;137151;1269;24324;-87
2023/04/02 18:22:53;;;;;;;;;;;;;;;;;;137544;1272;22562;-85
2023/04/02 18:25:54;;;;;;;;;;;;;;;;;;136979;1272;22491;-85
2023/04/02 18:28:55;;;;;;;;;;;;;;;;;;136898;1272;22542;-86
2023/04/02 18:31:56;;;;;;;;;;;;;;;;;;137552;1272;23608;-83
2023/04/02 18:34:57;;;;;;;;;;;;;;;;;;136953;1272;22502;-85
2023/04/02 18:37:58;;;;;;;;;;;;;;;;;;136857;1272;22514;-84
2023/04/02 18:40:59;;;;;;;;;;;;;;;;;;137503;1272;22551;-84
2023/04/02 18:44:01;;;;;;;;;;;;;;;;;;136900;1272;22509;-84
2023/04/02 18:47:02;;;;;;;;;;;;;;;;;;136876;1272;22510;-86
2023/04/02 18:50:03;;;;;;;;;;;;;;;;;;137522;1272;22587;-84
2023/04/02 18:53:04;;;;;;;;;;;;;;;;;;137224;1272;22498;-84
2023/04/02 18:56:05;;;;;;;;;;;;;;;;;;136928;1272;22506;-83
2023/04/02 18:59:06;;;;;;;;;;;;;;;;;;137225;1272;22518;-84
2023/04/02 19:02:07;;;;;;;;;;;;;;;;;;137309;1272;22729;-84
2023/04/02 19:05:08;;;;;;;;;;;;;;;;;;136969;1272;22500;-84
2023/04/02 19:08:09;;;;;;;;;;;;;;;;;;137149;1272;22514;-86
2023/04/02 19:11:11;;;;;;;;;;;;;;;;;;137450;1272;22506;-87
2023/04/02 19:14:12;;;;;;;;;;;;;;;;;;136990;1272;22580;-84
2023/04/02 19:17:13;;;;;;;;;;;;;;;;;;136982;1272;25374;-84
2023/04/02 19:20:14;;;;;;;;;;;;;;;;;;137463;1272;22704;-83
2023/04/02 19:23:15;;;;;;;;;;;;;;;;;;137059;1272;22535;-84
2023/04/02 19:26:16;;;;;;;;;;;;;;;;;;137035;1272;22875;-84
2023/04/02 19:29:18;;;;;;;;;;;;;;;;;;137616;1272;22485;-85
2023/04/02 19:32:21;;;;;;;;;;;;;;;;;;137030;1272;22505;-85
2023/04/02 19:35:22;;;;;;;;;;;;;;;;;;136972;1272;22855;-87
2023/04/02 19:38:23;;;;;;;;;;;;;;;;;;137396;1272;22515;-85
2023/04/02 19:41:25;;;;;;;;;;;;;;;;;;137199;1263;22533;-84
2023/04/02 19:44:26;;;;;;;;;;;;;;;;;;136874;1272;22567;-84
2023/04/02 19:47:27;;;;;;;;;;;;;;;;;;137344;1272;22514;-84
2023/04/02 19:50:28;;;;;;;;;;;;;;;;;;137488;1272;23097;-84
2023/04/02 19:53:29;;;;;;;;;;;;;;;;;;136962;1272;22543;-84
2023/04/02 19:56:30;;;;;;;;;;;;;;;;;;137074;1272;22602;-85
2023/04/02 19:59:31;;;;;;;;;;;;;;;;;;137591;1272;22517;-83
2023/04/02 20:02:32;;;;;;;;;;;;;;;;;;136787;1272;22538;-84
2023/04/02 20:05:33;;;;;;;;;;;;;;;;;;136984;1272;25179;-85
2023/04/02 20:08:35;;;;;;;;;;;;;;;;;;137630;1272;22907;-86
2023/04/02 20:11:36;;;;;;;;;;;;;;;;;;136966;1272;22515;-85
2023/04/02 20:14:37;;;;;;;;;;;;;;;;;;137022;1272;22857;-85
2023/04/02 20:17:38;;;;;;;;;;;;;;;;;;137480;1272;25382;-88